Time;durP1;ratioP1;P1;durP2;ratioP2;P2;SDS_P1;SDS_P2;PMS_P1;PMS_P2;Temp;Humidity;BMP_temperature;BMP_pressure;BME280_temperature;BME280_humidity;BME280_pressure;Samples;Min_cycle;Max_cycle;Signal;HPM_P1;HPM_P2
2020/12/08 00:02:15;;;;;;;10.38;7.28;;;2.80;99.90;;;;;;5074307;28;20570;-78
2020/12/08 00:04:42;;;;;;;9.90;7.68;;;2.80;99.90;;;;;;5072451;28;20032;-77
2020/12/08 00:07:09;;;;;;;10.57;8.23;;;2.80;99.90;;;;;;5089306;28;20034;-77
2020/12/08 00:09:37;;;;;;;9.32;7.35;;;2.80;99.90;;;;;;5073947;28;20036;-77
2020/12/08 00:12:03;;;;;;;10.20;8.35;;;2.80;99.90;;;;;;5073931;28;20028;-77
2020/12/08 00:14:28;;;;;;;10.80;7.47;;;2.80;99.90;;;;;;5089172;28;20101;-77
2020/12/08 00:16:54;;;;;;;10.25;7.57;;;2.80;99.90;;;;;;5072356;28;20496;-77
2020/12/08 00:19:20;;;;;;;11.93;7.63;;;2.70;99.90;;;;;;5073340;28;20040;-78
2020/12/08 00:21:46;;;;;;;8.38;6.68;;;2.70;99.90;;;;;;5089081;28;20035;-78
2020/12/08 00:24:12;;;;;;;11.35;7.15;;;2.70;99.90;;;;;;5089027;28;20020;-77
2020/12/08 00:26:39;;;;;;;9.27;7.05;;;2.90;99.90;;;;;;5073740;28;20028;-77
2020/12/08 00:29:11;;;;;;;9.05;7.18;;;3.00;99.90;;;;;;5073715;28;20028;-78
2020/12/08 00:31:37;;;;;;;8.30;6.80;;;3.10;99.90;;;;;;5071846;28;20032;-77
2020/12/08 00:34:04;;;;;;;9.07;6.85;;;3.10;99.90;;;;;;5073108;28;20028;-78
2020/12/08 00:36:30;;;;;;;10.02;6.82;;;3.00;99.90;;;;;;5073391;28;20032;-77
2020/12/08 00:38:56;;;;;;;11.23;7.95;;;3.00;99.90;;;;;;5073280;28;20025;-78
2020/12/08 00:41:22;;;;;;;11.13;8.32;;;2.90;99.90;;;;;;5072085;28;20024;-77
2020/12/08 00:43:49;;;;;;;12.40;8.68;;;2.90;99.90;;;;;;5073351;28;20531;-78
2020/12/08 00:46:16;;;;;;;12.70;9.25;;;2.80;99.90;;;;;;5073257;28;20476;-77
2020/12/08 00:48:43;;;;;;;11.20;8.80;;;2.80;99.90;;;;;;5088846;28;20031;-77
2020/12/08 00:51:09;;;;;;;12.93;9.48;;;2.80;99.90;;;;;;5088776;28;20115;-78
2020/12/08 00:53:35;;;;;;;15.20;9.80;;;2.80;99.90;;;;;;5071944;28;20020;-78
2020/12/08 00:56:01;;;;;;;13.20;10.10;;;2.70;99.90;;;;;;5071952;28;20029;-78
2020/12/08 00:58:27;;;;;;;12.70;9.27;;;2.80;99.90;;;;;;5071829;28;20529;-78
2020/12/08 01:00:53;;;;;;;14.73;10.65;;;2.80;99.90;;;;;;5071870;28;20116;-78
2020/12/08 01:03:20;;;;;;;12.25;9.75;;;2.80;99.90;;;;;;5073103;28;20028;-78
2020/12/08 01:05:45;;;;;;;14.95;10.73;;;2.80;99.90;;;;;;5073125;28;20017;-78
2020/12/08 01:08:11;;;;;;;13.88;10.43;;;2.80;99.90;;;;;;5073383;28;20025;-78
2020/12/08 01:10:37;;;;;;;13.73;10.82;;;2.80;99.90;;;;;;5071803;28;20021;-78
2020/12/08 01:13:03;;;;;;;16.83;10.77;;;2.70;99.90;;;;;;5073036;28;20033;-78
2020/12/08 01:15:29;;;;;;;13.45;10.07;;;2.70;99.90;;;;;;5071742;28;20032;-78
2020/12/08 01:17:54;;;;;;;15.63;10.02;;;2.70;99.90;;;;;;5071555;28;20048;-78
2020/12/08 01:20:20;;;;;;;15.48;11.30;;;2.60;99.90;;;;;;5071653;28;20115;-77
2020/12/08 01:22:46;;;;;;;18.83;10.50;;;2.70;99.90;;;;;;5073010;28;20017;-78
2020/12/08 01:25:12;;;;;;;11.18;8.13;;;2.70;99.90;;;;;;5071637;28;20020;-77
2020/12/08 01:27:37;;;;;;;15.15;11.32;;;2.80;99.90;;;;;;5071673;28;20383;-78
2020/12/08 01:30:04;;;;;;;17.52;11.73;;;2.90;99.90;;;;;;5071602;28;20056;-78
2020/12/08 01:32:30;;;;;;;12.43;9.68;;;2.90;99.90;;;;;;5072840;28;20027;-78
2020/12/08 01:34:56;;;;;;;17.48;11.98;;;2.90;99.90;;;;;;5073090;28;20024;-77
2020/12/08 01:37:22;;;;;;;17.25;10.98;;;2.80;99.90;;;;;;5073394;28;20031;-78
2020/12/08 01:39:47;;;;;;;13.77;9.40;;;2.80;99.90;;;;;;5072778;28;20032;-79
2020/12/08 01:42:13;;;;;;;14.95;10.75;;;2.70;99.90;;;;;;5071485;28;20020;-77
2020/12/08 01:44:45;;;;;;;17.77;12.82;;;2.70;99.90;;;;;;5074062;28;20021;-77
2020/12/08 01:47:10;;;;;;;12.70;10.23;;;2.70;99.90;;;;;;5076247;28;20025;-78
2020/12/08 01:49:36;;;;;;;14.18;10.63;;;2.70;99.90;;;;;;5076231;28;20032;-77
2020/12/08 01:52:02;;;;;;;16.88;11.32;;;2.70;99.90;;;;;;5074942;28;20468;-78
2020/12/08 01:54:27;;;;;;;16.55;12.00;;;2.70;99.90;;;;;;5076168;28;20028;-78
2020/12/08 01:56:53;;;;;;;18.38;12.75;;;2.60;99.90;;;;;;5074833;28;20025;-77
2020/12/08 01:59:19;;;;;;;19.45;11.82;;;2.60;99.90;;;;;;5074829;28;20086;-77
2020/12/08 02:01:47;;;;;;;17.05;12.30;;;2.60;99.90;;;;;;5091605;28;20120;-77
2020/12/08 02:04:13;;;;;;;16.50;11.27;;;2.60;99.90;;;;;;5074703;28;20074;-78
2020/12/08 02:06:38;;;;;;;20.20;12.80;;;2.50;99.90;;;;;;5074634;28;20398;-78
2020/12/08 02:09:04;;;;;;;21.20;14.13;;;2.40;99.90;;;;;;5075932;28;20118;-77
2020/12/08 02:11:30;;;;;;;17.67;11.50;;;2.40;99.90;;;;;;5075865;28;20029;-78
2020/12/08 02:13:55;;;;;;;11.55;8.95;;;2.50;99.90;;;;;;5075802;28;20077;-77
2020/12/08 02:16:21;;;;;;;17.85;12.88;;;2.60;99.90;;;;;;5074467;28;20119;-76
2020/12/08 02:18:47;;;;;;;17.55;11.73;;;2.70;99.90;;;;;;5075464;28;20044;-78
2020/12/08 02:21:13;;;;;;;20.40;13.77;;;2.60;99.90;;;;;;5075638;28;20150;-79
2020/12/08 02:23:38;;;;;;;19.58;13.48;;;2.60;99.90;;;;;;5075582;28;20020;-78
2020/12/08 02:26:05;;;;;;;19.33;12.65;;;2.60;99.90;;;;;;5075837;28;20025;-78
2020/12/08 02:28:32;;;;;;;21.70;14.38;;;2.60;99.90;;;;;;5075495;28;20471;-78
2020/12/08 02:30:58;;;;;;;17.80;12.85;;;2.60;99.90;;;;;;5075507;28;20052;-77
2020/12/08 02:33:25;;;;;;;18.02;12.93;;;2.50;99.90;;;;;;5075447;28;20502;-78
2020/12/08 02:35:51;;;;;;;17.70;12.68;;;2.50;99.90;;;;;;5091011;28;20047;-78
2020/12/08 02:38:18;;;;;;;14.93;10.25;;;2.60;99.90;;;;;;5090892;28;20024;-78
2020/12/08 02:40:46;;;;;;;17.80;11.98;;;2.70;99.90;;;;;;5075530;28;20028;-77
2020/12/08 02:43:12;;;;;;;18.40;12.23;;;2.60;99.90;;;;;;5075524;28;20490;-78
2020/12/08 02:45:37;;;;;;;17.20;12.05;;;2.70;99.90;;;;;;5075395;28;20021;-78
2020/12/08 02:48:03;;;;;;;17.70;12.07;;;2.70;99.90;;;;;;5073876;28;20017;-78
2020/12/08 02:50:28;;;;;;;20.42;11.80;;;2.70;99.90;;;;;;5073780;28;20044;-77
2020/12/08 02:52:54;;;;;;;19.80;13.05;;;2.70;99.90;;;;;;5075228;28;20095;-77
2020/12/08 02:55:20;;;;;;;18.65;13.25;;;2.70;99.90;;;;;;5073207;28;20429;-77
2020/12/08 02:57:47;;;;;;;18.80;12.65;;;2.60;99.90;;;;;;5073679;28;20060;-77
2020/12/08 03:00:12;;;;;;;18.20;12.88;;;2.70;99.90;;;;;;5074835;28;20029;-78
2020/12/08 03:02:38;;;;;;;21.60;14.38;;;2.70;99.90;;;;;;5073475;28;20021;-77
2020/12/08 03:05:04;;;;;;;18.67;12.32;;;2.60;99.90;;;;;;5074765;28;20376;-78
2020/12/08 03:07:30;;;;;;;22.08;14.45;;;2.60;99.90;;;;;;5074666;28;20491;-77
2020/12/08 03:09:55;;;;;;;19.75;12.95;;;2.50;99.90;;;;;;5090253;28;20021;-78
2020/12/08 03:12:21;;;;;;;18.60;12.25;;;2.40;99.90;;;;;;5073360;28;20476;-77
2020/12/08 03:14:47;;;;;;;19.45;12.93;;;2.50;99.90;;;;;;5073299;28;20430;-77
2020/12/08 03:17:12;;;;;;;19.15;13.85;;;2.50;99.90;;;;;;5074553;28;20538;-78
2020/12/08 03:19:38;;;;;;;18.35;12.65;;;2.50;99.90;;;;;;5072920;28;20076;-77
2020/12/08 03:22:07;;;;;;;20.60;13.18;;;2.50;99.90;;;;;;5074454;28;20436;-77
2020/12/08 03:24:32;;;;;;;21.40;12.88;;;2.40;99.90;;;;;;5073117;28;20029;-77
2020/12/08 03:26:58;;;;;;;20.00;13.25;;;2.50;99.90;;;;;;5073056;28;20119;-77
2020/12/08 03:29:24;;;;;;;20.83;12.77;;;2.60;99.90;;;;;;5074531;28;20028;-77
2020/12/08 03:31:49;;;;;;;17.42;11.95;;;2.50;99.90;;;;;;5073026;28;20021;-77
2020/12/08 03:34:15;;;;;;;18.52;12.43;;;2.50;99.90;;;;;;5072933;28;20495;-78
2020/12/08 03:36:41;;;;;;;20.27;12.75;;;2.60;99.90;;;;;;5074189;28;20059;-77
2020/12/08 03:39:07;;;;;;;20.98;12.30;;;2.50;99.90;;;;;;5074267;28;20054;-78
2020/12/08 03:41:32;;;;;;;16.70;12.07;;;2.50;99.90;;;;;;5072793;28;20407;-77
2020/12/08 03:43:58;;;;;;;18.17;12.38;;;2.50;99.90;;;;;;5072747;28;20029;-78
2020/12/08 03:46:26;;;;;;;21.13;13.57;;;2.40;99.90;;;;;;5072711;28;20021;-78
2020/12/08 03:48:53;;;;;;;16.17;11.50;;;2.50;99.90;;;;;;5074005;28;20028;-78
2020/12/08 03:51:20;;;;;;;19.45;12.00;;;2.30;99.90;;;;;;5089536;28;20033;-78
2020/12/08 03:53:47;;;;;;;13.63;9.82;;;2.40;99.90;;;;;;5073920;28;20050;-77
2020/12/08 03:56:14;;;;;;;16.92;11.82;;;2.50;99.90;;;;;;5089404;28;20025;-78
2020/12/08 03:58:41;;;;;;;15.80;11.55;;;2.40;99.90;;;;;;5073830;28;20166;-78
2020/12/08 04:01:12;;;;;;;16.50;11.73;;;2.30;99.90;;;;;;5089414;28;20373;-76
2020/12/08 04:03:38;;;;;;;15.85;11.07;;;2.30;99.90;;;;;;5089414;28;20035;-78
2020/12/08 04:06:04;;;;;;;15.27;11.63;;;2.20;99.90;;;;;;5073744;28;20423;-78
2020/12/08 04:08:30;;;;;;;17.70;12.60;;;2.30;99.90;;;;;;5071707;28;20504;-78
2020/12/08 04:10:57;;;;;;;20.38;11.90;;;2.30;99.90;;;;;;5073657;28;20468;-78
2020/12/08 04:13:22;;;;;;;17.05;10.85;;;2.20;99.90;;;;;;5073649;28;20074;-78
2020/12/08 04:15:48;;;;;;;17.05;11.80;;;2.20;99.90;;;;;;5072361;28;20032;-77
2020/12/08 04:18:15;;;;;;;14.68;10.80;;;2.20;99.90;;;;;;5072041;28;20097;-78
2020/12/08 04:20:41;;;;;;;16.27;11.02;;;2.10;99.90;;;;;;5072301;28;20025;-78
2020/12/08 04:23:10;;;;;;;19.13;12.40;;;2.20;99.90;;;;;;5089138;28;20016;-78
2020/12/08 04:25:36;;;;;;;16.50;11.50;;;2.10;99.90;;;;;;5089125;28;20510;-78
2020/12/08 04:28:01;;;;;;;17.00;11.63;;;2.10;99.90;;;;;;5072307;28;20020;-77
2020/12/08 04:30:27;;;;;;;16.10;11.75;;;2.20;99.90;;;;;;5072199;28;20029;-77
2020/12/08 04:32:53;;;;;;;17.30;12.38;;;2.30;99.90;;;;;;5072154;28;20028;-78
2020/12/08 04:35:18;;;;;;;17.13;12.07;;;2.30;99.90;;;;;;5073464;28;20029;-78
2020/12/08 04:37:44;;;;;;;16.73;11.38;;;2.40;99.90;;;;;;5072162;28;20029;-78
2020/12/08 04:40:10;;;;;;;17.00;11.77;;;2.30;99.90;;;;;;5073554;28;20033;-78
2020/12/08 04:42:43;;;;;;;18.40;12.52;;;2.50;99.90;;;;;;5073376;28;20103;-78
2020/12/08 04:45:10;;;;;;;15.65;11.60;;;2.50;99.90;;;;;;5073685;28;20017;-77
2020/12/08 04:47:39;;;;;;;17.95;10.70;;;2.40;99.90;;;;;;5088851;28;20025;-77
2020/12/08 04:50:05;;;;;;;16.02;11.02;;;2.50;99.90;;;;;;5073548;28;20052;-77
2020/12/08 04:52:31;;;;;;;16.38;11.38;;;2.60;99.90;;;;;;5088841;28;20028;-77
2020/12/08 04:54:57;;;;;;;14.20;9.88;;;2.40;99.90;;;;;;5071979;28;20054;-77
2020/12/08 04:57:26;;;;;;;17.25;11.13;;;2.50;99.90;;;;;;5088831;28;20032;-77
2020/12/08 05:00:03;;;;;;;16.13;10.63;;;2.50;99.90;;;;;;5071842;28;20021;-76
2020/12/08 05:02:29;;;;;;;14.13;9.85;;;2.60;99.90;;;;;;5072143;28;20074;-77
2020/12/08 05:04:55;;;;;;;15.23;10.73;;;2.50;99.90;;;;;;5071857;28;20028;-78
2020/12/08 05:07:29;;;;;;;20.35;12.75;;;2.70;99.90;;;;;;5073150;28;20476;-77
2020/12/08 05:09:54;;;;;;;18.08;13.45;;;2.60;99.90;;;;;;5073479;28;20055;-78
2020/12/08 05:12:24;;;;;;;17.02;12.05;;;2.40;99.90;;;;;;5071781;28;20028;-78
2020/12/08 05:14:51;;;;;;;16.25;11.43;;;2.40;99.90;;;;;;5073005;28;20078;-78
2020/12/08 05:17:24;;;;;;;18.60;11.88;;;2.40;99.90;;;;;;5073325;28;20025;-78
2020/12/08 05:20:09;;;;;;;16.20;11.80;;;2.30;99.90;;;;;;5074458;28;20044;-78
2020/12/08 05:22:36;;;;;;;19.58;13.02;;;2.20;99.90;;;;;;5092572;28;20543;-78
2020/12/08 05:25:08;;;;;;;16.00;11.27;;;2.20;99.90;;;;;;5075420;28;20388;-78
2020/12/08 05:27:35;;;;;;;16.50;12.25;;;2.30;99.90;;;;;;5076666;28;20357;-78
2020/12/08 05:30:08;;;;;;;17.15;10.32;;;2.40;99.90;;;;;;5076611;28;20089;-78
2020/12/08 05:32:38;;;;;;;16.00;11.00;;;2.50;99.90;;;;;;5076582;28;20404;-78
2020/12/08 05:35:15;;;;;;;21.00;14.13;;;2.50;99.90;;;;;;5092149;28;20476;-77
2020/12/08 05:37:43;;;;;;;19.25;13.27;;;2.40;99.90;;;;;;5092152;28;20472;-78
2020/12/08 05:40:21;;;;;;;20.23;13.57;;;2.30;99.90;;;;;;5091958;28;20392;-78
2020/12/08 05:42:48;;;;;;;17.77;12.05;;;2.20;99.90;;;;;;5075140;28;20043;-77
2020/12/08 05:45:16;;;;;;;20.83;13.85;;;2.40;99.90;;;;;;5091982;28;20017;-77
2020/12/08 05:47:47;;;;;;;15.85;10.98;;;2.40;99.90;;;;;;5076162;28;20039;-78
2020/12/08 05:50:14;;;;;;;18.40;12.48;;;2.40;99.90;;;;;;5091918;28;20032;-78
2020/12/08 05:52:47;;;;;;;18.52;12.18;;;2.40;99.90;;;;;;5091813;28;20035;-77
2020/12/08 05:55:17;;;;;;;15.60;11.40;;;2.30;99.90;;;;;;5076454;28;20025;-78
2020/12/08 05:57:44;;;;;;;18.33;12.95;;;2.30;99.90;;;;;;5076349;28;20020;-77
2020/12/08 06:00:30;;;;;;;21.83;15.70;;;2.40;99.90;;;;;;5076575;28;20112;-77
2020/12/08 06:03:11;;;;;;;20.27;14.00;;;2.30;99.90;;;;;;5076011;28;20098;-78
2020/12/08 06:05:37;;;;;;;18.95;13.38;;;2.30;99.90;;;;;;5076557;28;20035;-77
2020/12/08 06:08:17;;;;;;;19.58;13.07;;;2.20;99.90;;;;;;5074682;28;20495;-77
2020/12/08 06:11:04;;;;;;;17.30;12.27;;;2.10;99.90;;;;;;5091519;28;20021;-77
2020/12/08 06:13:31;;;;;;;19.23;13.40;;;2.10;99.90;;;;;;5075657;28;20040;-78
2020/12/08 06:15:59;;;;;;;19.83;13.90;;;2.00;99.90;;;;;;5075838;28;20031;-77
2020/12/08 06:18:33;;;;;;;23.48;13.52;;;2.10;99.90;;;;;;5091171;28;20143;-77
2020/12/08 06:21:01;;;;;;;20.50;14.27;;;2.20;99.90;;;;;;5091337;28;20027;-78
2020/12/08 06:23:27;;;;;;;20.85;14.02;;;2.10;99.90;;;;;;5076020;28;20024;-78
2020/12/08 06:26:03;;;;;;;20.50;14.63;;;2.10;99.90;;;;;;5076205;28;20031;-78
2020/12/08 06:28:29;;;;;;;22.17;14.25;;;2.10;99.90;;;;;;5075588;28;20024;-77
2020/12/08 06:31:06;;;;;;;20.20;14.40;;;2.10;99.90;;;;;;5074678;28;20017;-77
2020/12/08 06:33:53;;;;;;;21.27;14.25;;;2.00;99.90;;;;;;5091122;28;20021;-78
2020/12/08 06:36:27;;;;;;;23.30;14.85;;;2.10;99.90;;;;;;5073811;28;20387;-78
2020/12/08 06:39:00;;;;;;;21.15;13.85;;;2.20;99.90;;;;;;5073999;28;20021;-77
2020/12/08 06:41:34;;;;;;;23.58;15.40;;;2.20;99.90;;;;;;5075357;28;20017;-77
2020/12/08 06:44:01;;;;;;;24.40;16.42;;;2.20;99.90;;;;;;5090868;28;20024;-77
2020/12/08 06:46:29;;;;;;;17.58;13.23;;;2.20;99.90;;;;;;5090759;28;20029;-78
2020/12/08 06:49:06;;;;;;;23.42;14.65;;;2.10;99.90;;;;;;5057359;28;20029;-77
2020/12/08 06:51:33;;;;;;;28.02;17.05;;;2.30;99.90;;;;;;5075405;28;20464;-77
2020/12/08 06:54:10;;;;;;;24.75;15.80;;;2.30;99.90;;;;;;5090687;28;20020;-78
2020/12/08 06:56:36;;;;;;;30.33;19.27;;;2.10;99.90;;;;;;5075102;28;20024;-77
2020/12/08 06:59:02;;;;;;;31.02;19.50;;;2.00;99.90;;;;;;5073565;28;20029;-77
2020/12/08 07:01:27;;;;;;;28.75;18.17;;;2.00;99.90;;;;;;5075179;28;20047;-77
2020/12/08 07:03:53;;;;;;;29.65;17.38;;;2.00;99.90;;;;;;5073623;28;20380;-77
2020/12/08 07:06:20;;;;;;;27.10;18.20;;;2.20;99.90;;;;;;5074796;28;20025;-77
2020/12/08 07:08:47;;;;;;;24.27;16.15;;;2.10;99.90;;;;;;5073460;28;20499;-78
2020/12/08 07:11:20;;;;;;;33.35;18.92;;;2.10;99.90;;;;;;5074663;28;20055;-78
2020/12/08 07:14:04;;;;;;;27.77;18.67;;;2.10;99.90;;;;;;5074621;28;20024;-78
2020/12/08 07:16:30;;;;;;;24.30;15.97;;;2.10;99.90;;;;;;5074922;28;20020;-77
2020/12/08 07:18:57;;;;;;;27.35;16.63;;;2.10;99.90;;;;;;5074204;28;20044;-77
2020/12/08 07:21:23;;;;;;;33.28;19.17;;;2.20;99.90;;;;;;5090128;28;20489;-78
2020/12/08 07:23:53;;;;;;;25.60;16.23;;;2.30;99.90;;;;;;5090021;28;20384;-77
2020/12/08 07:26:38;;;;;;;24.13;16.58;;;2.30;99.90;;;;;;5089985;28;20020;-77
2020/12/08 07:29:04;;;;;;;26.27;17.85;;;2.30;99.90;;;;;;5074632;28;20023;-77
2020/12/08 07:31:30;;;;;;;26.15;16.48;;;2.20;99.90;;;;;;5073034;28;20119;-78
2020/12/08 07:33:58;;;;;;;24.63;15.35;;;2.20;99.90;;;;;;5074266;28;20084;-78
2020/12/08 07:36:30;;;;;;;25.25;16.10;;;2.20;99.90;;;;;;5072959;28;20025;-77
2020/12/08 07:38:57;;;;;;;41.08;24.15;;;2.50;99.90;;;;;;5074278;28;20028;-77
2020/12/08 07:41:26;;;;;;;38.38;23.88;;;2.40;99.90;;;;;;5074106;28;20036;-77
2020/12/08 07:43:52;;;;;;;25.58;16.80;;;2.50;99.90;;;;;;5074076;28;20025;-78
2020/12/08 07:46:36;;;;;;;28.77;18.77;;;2.40;99.90;;;;;;5089559;28;20028;-77
2020/12/08 07:49:05;;;;;;;29.08;18.70;;;2.50;99.90;;;;;;5073990;28;20021;-78
2020/12/08 07:51:32;;;;;;;28.05;17.90;;;2.60;99.90;;;;;;5089532;28;20029;-77
2020/12/08 07:54:02;;;;;;;24.58;16.23;;;2.60;99.90;;;;;;5089513;28;20060;-77
2020/12/08 07:56:30;;;;;;;25.80;16.73;;;2.60;99.90;;;;;;5072587;28;20032;-78
2020/12/08 07:58:56;;;;;;;26.98;16.85;;;2.60;99.90;;;;;;5073781;28;20024;-78
2020/12/08 08:01:22;;;;;;;24.80;16.08;;;2.70;99.90;;;;;;5089428;28;20085;-77
2020/12/08 08:03:48;;;;;;;27.00;16.70;;;2.80;99.90;;;;;;5073960;28;20031;-77
2020/12/08 08:06:22;;;;;;;28.65;18.15;;;2.90;99.90;;;;;;5089307;28;20476;-77
2020/12/08 08:08:49;;;;;;;45.00;26.88;;;3.00;99.90;;;;;;5072608;28;20040;-78
2020/12/08 08:11:16;;;;;;;42.60;26.00;;;3.00;99.90;;;;;;5089314;28;20028;-78
2020/12/08 08:13:42;;;;;;;46.35;32.08;;;3.00;99.90;;;;;;5089295;28;20032;-78
2020/12/08 08:16:12;;;;;;;30.92;21.05;;;3.10;99.90;;;;;;5073695;28;20035;-78
2020/12/08 08:18:39;;;;;;;34.30;19.08;;;3.00;99.90;;;;;;5073349;28;20044;-78
2020/12/08 08:21:05;;;;;;;29.77;19.40;;;3.10;99.90;;;;;;5089007;28;20357;-77
2020/12/08 08:23:31;;;;;;;26.05;17.17;;;3.20;99.90;;;;;;5073544;28;20467;-77
2020/12/08 08:25:58;;;;;;;24.67;16.45;;;3.10;99.90;;;;;;5089034;28;20091;-78
2020/12/08 08:28:24;;;;;;;31.67;19.02;;;3.20;99.90;;;;;;5089030;28;20055;-78
2020/12/08 08:30:51;;;;;;;30.85;18.98;;;3.20;99.90;;;;;;5073467;28;20036;-78
2020/12/08 08:33:16;;;;;;;34.15;20.58;;;3.00;99.90;;;;;;5073477;28;20064;-78
2020/12/08 08:35:43;;;;;;;30.85;19.33;;;2.90;99.90;;;;;;5073416;28;20490;-78
2020/12/08 08:38:08;;;;;;;35.60;22.50;;;2.70;99.90;;;;;;5088926;28;20036;-78
2020/12/08 08:40:34;;;;;;;30.25;19.80;;;2.60;99.90;;;;;;5072269;28;20024;-77
2020/12/08 08:43:00;;;;;;;30.30;20.08;;;2.50;99.90;;;;;;5073355;28;20021;-78
2020/12/08 08:45:26;;;;;;;32.30;20.10;;;2.50;99.90;;;;;;5071996;28;20392;-78
2020/12/08 08:47:52;;;;;;;28.92;18.95;;;2.60;99.90;;;;;;5072013;28;20017;-78
2020/12/08 08:50:18;;;;;;;33.58;21.10;;;2.60;99.90;;;;;;5073312;28;20035;-78
2020/12/08 08:52:44;;;;;;;35.70;23.45;;;2.70;99.90;;;;;;5072024;28;20472;-79
2020/12/08 08:55:11;;;;;;;32.20;21.08;;;2.70;99.90;;;;;;5092979;28;20454;-78
2020/12/08 08:57:40;;;;;;;37.15;22.38;;;2.90;99.90;;;;;;5076031;28;20112;-78
2020/12/08 09:00:08;;;;;;;35.95;23.20;;;3.10;99.90;;;;;;5077460;28;20020;-78
2020/12/08 09:02:35;;;;;;;34.95;22.00;;;3.30;99.90;;;;;;5059770;28;20361;-78
2020/12/08 09:05:01;;;;;;;30.58;20.00;;;3.60;99.90;;;;;;5092753;28;20016;-78
2020/12/08 09:07:28;;;;;;;32.90;22.33;;;3.80;99.90;;;;;;5075822;28;20032;-78
2020/12/08 09:09:55;;;;;;;33.35;21.88;;;4.10;99.90;;;;;;5075695;28;20368;-78
2020/12/08 09:12:22;;;;;;;34.33;21.15;;;4.30;99.90;;;;;;5077279;28;20028;-78
2020/12/08 09:14:49;;;;;;;37.60;22.83;;;4.70;99.90;;;;;;5076969;28;20039;-78
2020/12/08 09:17:15;;;;;;;30.75;19.02;;;4.80;99.90;;;;;;5075633;28;20035;-77
2020/12/08 09:19:41;;;;;;;33.70;21.33;;;5.00;99.90;;;;;;5076578;28;20045;-78
2020/12/08 09:22:07;;;;;;;30.08;19.20;;;5.20;99.90;;;;;;5092453;28;20468;-78
2020/12/08 09:24:33;;;;;;;35.20;20.77;;;5.50;99.90;;;;;;5075449;28;20028;-78
2020/12/08 09:27:00;;;;;;;31.23;20.27;;;5.70;99.90;;;;;;5092331;28;20474;-77
2020/12/08 09:29:26;;;;;;;33.67;22.00;;;5.80;99.90;;;;;;5076651;28;20150;-78
2020/12/08 09:31:56;;;;;;;30.55;18.50;;;5.90;99.90;;;;;;5092291;28;20361;-78
2020/12/08 09:34:23;;;;;;;38.20;20.83;;;6.20;99.90;;;;;;5076558;28;20164;-77
2020/12/08 09:36:50;;;;;;;29.42;18.83;;;6.40;99.90;;;;;;5075194;28;20028;-78
2020/12/08 09:39:16;;;;;;;30.08;19.15;;;6.70;99.90;;;;;;5075082;28;20491;-78
2020/12/08 09:41:42;;;;;;;29.63;20.00;;;6.70;99.90;;;;;;5075128;28;20021;-78
2020/12/08 09:44:10;;;;;;;27.92;17.60;;;7.00;99.90;;;;;;5075094;28;20025;-78
2020/12/08 09:46:37;;;;;;;32.67;20.40;;;7.10;99.90;;;;;;5091821;28;20056;-79
2020/12/08 09:49:04;;;;;;;34.17;21.42;;;6.80;99.90;;;;;;5091910;28;20119;-78
2020/12/08 09:51:30;;;;;;;29.38;19.13;;;6.70;99.90;;;;;;5076202;28;20476;-79
2020/12/08 09:53:57;;;;;;;27.00;18.67;;;6.80;99.90;;;;;;5076184;28;20491;-78
2020/12/08 09:56:23;;;;;;;39.92;24.70;;;7.00;99.90;;;;;;5091848;28;20111;-78
2020/12/08 09:58:49;;;;;;;30.85;20.35;;;7.00;99.90;;;;;;5074769;28;20039;-79
2020/12/08 10:01:15;;;;;;;28.65;18.33;;;7.00;99.90;;;;;;5076089;28;20380;-78
2020/12/08 10:03:41;;;;;;;30.48;19.50;;;7.00;99.90;;;;;;5076271;28;20021;-78
2020/12/08 10:06:07;;;;;;;28.17;19.83;;;6.90;99.90;;;;;;5073488;28;20021;-78
2020/12/08 10:08:33;;;;;;;29.58;21.27;;;6.90;99.90;;;;;;5074652;28;20017;-79
2020/12/08 10:10:59;;;;;;;35.53;23.80;;;7.00;99.90;;;;;;5074649;28;20043;-79
2020/12/08 10:13:25;;;;;;;28.48;20.17;;;7.00;99.90;;;;;;5074597;28;20430;-79
2020/12/08 10:15:50;;;;;;;33.17;22.77;;;6.90;99.90;;;;;;5091453;28;20541;-79
2020/12/08 10:18:17;;;;;;;29.70;20.77;;;6.80;99.90;;;;;;5074300;28;20070;-79
2020/12/08 10:20:43;;;;;;;32.30;22.15;;;6.70;99.90;;;;;;5074393;28;20029;-79
2020/12/08 10:23:09;;;;;;;33.17;21.35;;;6.60;99.90;;;;;;5075757;28;20016;-78
2020/12/08 10:25:35;;;;;;;29.50;20.50;;;6.50;99.90;;;;;;5074654;28;20142;-79
2020/12/08 10:28:02;;;;;;;33.20;21.65;;;6.70;99.90;;;;;;5075578;28;20028;-79
2020/12/08 10:30:28;;;;;;;26.05;18.13;;;6.80;99.90;;;;;;5075587;28;20039;-79
2020/12/08 10:32:53;;;;;;;35.58;22.10;;;6.90;99.90;;;;;;5074212;28;20025;-78
2020/12/08 10:35:19;;;;;;;28.02;18.77;;;6.90;99.90;;;;;;5074177;28;20024;-79
2020/12/08 10:37:45;;;;;;;28.63;19.70;;;6.90;99.90;;;;;;5075712;28;20024;-78
2020/12/08 10:40:11;;;;;;;28.00;18.95;;;7.00;99.90;;;;;;5075222;28;20031;-78
2020/12/08 10:42:37;;;;;;;27.00;18.52;;;7.20;99.90;;;;;;5074037;28;20073;-79
2020/12/08 10:45:03;;;;;;;25.67;17.77;;;7.40;99.90;;;;;;5073996;28;20026;-78
2020/12/08 10:47:29;;;;;;;25.92;18.50;;;7.60;99.90;;;;;;5073833;28;20030;-79
2020/12/08 10:49:55;;;;;;;25.50;18.92;;;7.70;99.90;;;;;;5075122;28;20047;-78
2020/12/08 10:52:21;;;;;;;29.65;20.38;;;7.70;99.90;;;;;;5075394;28;20025;-78
2020/12/08 10:54:47;;;;;;;28.27;19.00;;;8.00;99.90;;;;;;5090658;28;20111;-78
2020/12/08 10:57:13;;;;;;;27.85;19.77;;;8.40;99.90;;;;;;5073715;28;20128;-78
2020/12/08 10:59:39;;;;;;;30.40;20.48;;;8.00;99.90;;;;;;5073559;28;20063;-79
2020/12/08 11:02:05;;;;;;;27.67;19.63;;;8.00;99.90;;;;;;5074876;28;20012;-78
2020/12/08 11:04:31;;;;;;;28.23;19.42;;;8.10;99.90;;;;;;5075424;28;20099;-78
2020/12/08 11:06:58;;;;;;;27.30;18.15;;;8.20;99.90;;;;;;5074818;28;20104;-78
2020/12/08 11:09:26;;;;;;;26.80;18.83;;;8.50;99.90;;;;;;5075060;28;20039;-79
2020/12/08 11:11:51;;;;;;;26.20;18.13;;;8.50;99.90;;;;;;5075038;28;20128;-79
2020/12/08 11:14:17;;;;;;;32.17;18.95;;;8.60;99.90;;;;;;5073387;28;20488;-79
2020/12/08 11:16:43;;;;;;;26.42;17.73;;;8.60;99.90;;;;;;5073034;28;20031;-78
2020/12/08 11:19:09;;;;;;;26.73;19.00;;;8.60;99.90;;;;;;5072973;28;20094;-79
2020/12/08 11:21:39;;;;;;;27.23;16.88;;;8.70;99.90;;;;;;5075098;28;20025;-78
2020/12/08 11:24:07;;;;;;;35.03;23.08;;;8.60;99.90;;;;;;5074752;28;20041;-78
2020/12/08 11:26:35;;;;;;;31.05;19.55;;;8.00;99.90;;;;;;5074364;28;20027;-78
2020/12/08 11:29:01;;;;;;;40.65;22.33;;;7.70;99.90;;;;;;5089953;28;20033;-77
2020/12/08 11:31:26;;;;;;;29.83;19.45;;;7.30;99.90;;;;;;5074273;28;20020;-77
2020/12/08 11:33:52;;;;;;;33.72;22.02;;;7.30;99.90;;;;;;5073025;28;20498;-77
2020/12/08 11:36:19;;;;;;;35.63;22.48;;;7.00;99.90;;;;;;5072931;28;20094;-78
2020/12/08 11:38:44;;;;;;;33.80;22.88;;;6.70;99.90;;;;;;5074409;28;20059;-78
2020/12/08 11:41:11;;;;;;;35.42;22.35;;;6.90;99.90;;;;;;5074113;28;20044;-77
2020/12/08 11:43:37;;;;;;;30.30;21.17;;;6.80;99.90;;;;;;5072775;28;20058;-78
2020/12/08 11:46:03;;;;;;;27.98;18.33;;;7.00;99.90;;;;;;5073300;28;20021;-78
2020/12/08 11:48:30;;;;;;;27.55;19.40;;;7.20;99.90;;;;;;5074285;28;20024;-78
2020/12/08 11:50:56;;;;;;;34.03;19.67;;;7.20;99.90;;;;;;5089647;28;20024;-78
2020/12/08 11:53:22;;;;;;;28.75;18.92;;;7.20;99.90;;;;;;5089556;28;20040;-77
2020/12/08 11:55:50;;;;;;;29.13;19.63;;;7.40;99.90;;;;;;5089498;28;20028;-78
2020/12/08 11:58:15;;;;;;;25.92;18.77;;;7.40;99.90;;;;;;5073904;28;20100;-79
2020/12/08 12:00:42;;;;;;;27.85;19.38;;;7.50;99.90;;;;;;5074107;28;20115;-80
2020/12/08 12:03:08;;;;;;;28.30;17.85;;;7.70;99.90;;;;;;5073785;28;20170;-81
2020/12/08 12:05:34;;;;;;;30.45;20.08;;;8.10;99.90;;;;;;5072554;28;20054;-81
2020/12/08 12:08:00;;;;;;;21.67;15.70;;;8.60;99.90;;;;;;5072485;28;20020;-81
2020/12/08 12:10:26;;;;;;;25.77;16.15;;;8.90;99.90;;;;;;5073996;28;20029;-81
2020/12/08 12:12:51;;;;;;;24.20;16.75;;;9.30;99.90;;;;;;5073728;28;20476;-81
2020/12/08 12:15:17;;;;;;;27.83;18.58;;;9.60;99.90;;;;;;5089242;28;20111;-81
2020/12/08 12:17:43;;;;;;;25.00;18.30;;;10.00;99.90;;;;;;5073624;28;20074;-81
2020/12/08 12:20:09;;;;;;;26.10;17.88;;;10.40;99.90;;;;;;5088885;28;20136;-80
2020/12/08 12:22:35;;;;;;;35.30;17.25;;;10.20;99.90;;;;;;5073894;28;20021;-80
2020/12/08 12:25:02;;;;;;;23.33;16.08;;;10.80;99.90;;;;;;5073597;28;20028;-80
2020/12/08 12:27:27;;;;;;;28.60;16.13;;;11.50;99.90;;;;;;5073573;28;20013;-80
2020/12/08 12:29:53;;;;;;;22.90;16.63;;;11.70;99.90;;;;;;5088406;28;20033;-81
2020/12/08 12:32:19;;;;;;;21.27;15.48;;;11.80;99.90;;;;;;5073444;28;20028;-80
2020/12/08 12:34:44;;;;;;;24.13;16.85;;;11.80;99.90;;;;;;5072122;28;20027;-80
2020/12/08 12:37:10;;;;;;;21.60;16.13;;;11.90;99.90;;;;;;5073379;28;20067;-81
2020/12/08 12:39:37;;;;;;;22.48;17.02;;;12.00;99.90;;;;;;5073318;28;20031;-80